Time;durP1;ratioP1;P1;durP2;ratioP2;P2;SDS_P1;SDS_P2;PMS_P1;PMS_P2;Temp;Humidity;BMP_temperature;BMP_pressure;BME280_temperature;BME280_humidity;BME280_pressure;Samples;Min_cycle;Max_cycle;Signal;HPM_P1;HPM_P2
2023/03/19 00:02:02;;;;;;;;;;;12.80;99.90;;;;;;7337286;19;110460;-66
2023/03/19 00:04:42;;;;;;;;;;;12.80;99.90;;;;;;7338271;19;109841;-66
2023/03/19 00:07:10;;;;;;;;;;;12.80;99.90;;;;;;7335453;19;109926;-66
2023/03/19 00:09:37;;;;;;;;;;;12.80;99.90;;;;;;7338571;19;110010;-70
2023/03/19 00:12:04;;;;;;;;;;;12.70;99.90;;;;;;7339600;19;110066;-65
2023/03/19 00:14:31;;;;;;;;;;;12.80;99.90;;;;;;7338028;19;110107;-66
2023/03/19 00:16:58;;;;;;;;;;;12.80;99.90;;;;;;7339865;19;110391;-66
2023/03/19 00:19:26;;;;;;;;;;;12.80;99.90;;;;;;7344459;19;109867;-66
2023/03/19 00:21:53;;;;;;;;;;;12.80;99.90;;;;;;7339137;19;114328;-67
2023/03/19 00:24:20;;;;;;;;;;;12.70;99.90;;;;;;7337830;19;109540;-66
2023/03/19 00:26:47;;;;;;;;;;;12.80;99.90;;;;;;7340520;19;108584;-77
2023/03/19 00:29:14;;;;;;;;;;;12.80;99.90;;;;;;7337957;19;110849;-71
2023/03/19 00:31:41;;;;;;;;;;;12.80;99.90;;;;;;7338311;19;109714;-71
2023/03/19 00:34:09;;;;;;;;;;;12.80;99.90;;;;;;7340137;19;108488;-72
2023/03/19 00:36:36;;;;;;;;;;;12.80;99.90;;;;;;7338752;19;109708;-71
2023/03/19 00:39:03;;;;;;;;;;;12.80;99.90;;;;;;7343201;19;109120;-72
2023/03/19 00:41:30;;;;;;;;;;;12.80;99.90;;;;;;7338954;19;109248;-68
2023/03/19 00:43:57;;;;;;;;;;;12.80;99.90;;;;;;7339461;19;110277;-66
2023/03/19 00:46:24;;;;;;;;;;;12.80;99.90;;;;;;7339085;19;109522;-72
2023/03/19 00:48:54;;;;;;;;;;;12.80;99.90;;;;;;7336318;19;108576;-66
2023/03/19 00:51:22;;;;;;;;;;;12.80;99.90;;;;;;7338860;19;109552;-70
2023/03/19 00:53:50;;;;;;;;;;;12.80;99.90;;;;;;7338147;19;108538;-68
2023/03/19 00:56:17;;;;;;;;;;;12.80;99.90;;;;;;7336489;19;110833;-66
2023/03/19 00:58:44;;;;;;;;;;;12.80;99.90;;;;;;7337821;19;109209;-66
2023/03/19 01:01:13;;;;;;;;;;;12.80;99.90;;;;;;7343241;19;111512;-67
2023/03/19 01:03:40;;;;;;;;;;;12.80;99.90;;;;;;7335211;19;109162;-67
2023/03/19 01:06:07;;;;;;;;;;;12.90;99.90;;;;;;7334158;19;110601;-66
2023/03/19 01:08:35;;;;;;;;;;;12.90;99.90;;;;;;7337173;19;110757;-67
2023/03/19 01:11:10;;;;;;;;;;;12.90;99.90;;;;;;7337600;19;110980;-66
2023/03/19 01:13:37;;;;;;;;;;;12.90;99.90;;;;;;7335622;19;109607;-66
2023/03/19 01:16:04;;;;;;;;;;;12.90;99.90;;;;;;7336166;19;110268;-67
2023/03/19 01:18:31;;;;;;;;;;;12.90;99.90;;;;;;7337867;19;110307;-68
2023/03/19 01:20:59;;;;;;;;;;;12.90;99.90;;;;;;7337213;19;108928;-66
2023/03/19 01:23:26;;;;;;;;;;;12.90;99.90;;;;;;7336674;19;109672;-66
2023/03/19 01:25:53;;;;;;;;;;;12.90;99.90;;;;;;7339579;19;108941;-66
2023/03/19 01:28:21;;;;;;;;;;;12.90;99.90;;;;;;7336664;19;108779;-66
2023/03/19 01:30:48;;;;;;;;;;;12.90;99.90;;;;;;7336373;19;110009;-66
2023/03/19 01:33:15;;;;;;;;;;;12.80;99.90;;;;;;7334083;19;108667;-66
2023/03/19 01:35:44;;;;;;;;;;;12.80;99.90;;;;;;7334624;19;110108;-66
2023/03/19 01:38:11;;;;;;;;;;;12.80;99.90;;;;;;7335064;19;109612;-66
2023/03/19 01:40:42;;;;;;;;;;;12.80;99.90;;;;;;7335843;19;109252;-66
2023/03/19 01:43:14;;;;;;;;;;;12.80;99.90;;;;;;7335442;19;109250;-66
2023/03/19 01:45:42;;;;;;;;;;;12.80;99.90;;;;;;7339781;19;110117;-68
2023/03/19 01:48:20;;;;;;;;;;;12.80;99.90;;;;;;7336812;19;108696;-66
2023/03/19 01:50:49;;;;;;;;;;;12.80;99.90;;;;;;7336196;19;110403;-67
2023/03/19 01:53:16;;;;;;;;;;;12.80;99.90;;;;;;7333853;19;109242;-67
2023/03/19 01:55:45;;;;;;;;;;;12.80;99.90;;;;;;7333414;19;110165;-66
2023/03/19 01:58:12;;;;;;;;;;;12.80;99.90;;;;;;7336625;19;110766;-66
2023/03/19 02:00:39;;;;;;;;;;;12.80;99.90;;;;;;7335178;19;108546;-66
2023/03/19 02:03:07;;;;;;;;;;;12.90;99.90;;;;;;7334245;19;108504;-67
2023/03/19 02:05:36;;;;;;;;;;;12.90;99.90;;;;;;7333068;19;110530;-66
2023/03/19 02:08:05;;;;;;;;;;;12.90;99.90;;;;;;7342391;19;108925;-66
2023/03/19 02:10:32;;;;;;;;;;;12.90;99.90;;;;;;7335439;19;109151;-66
2023/03/19 02:12:59;;;;;;;;;;;12.80;99.90;;;;;;7334826;19;109813;-66
2023/03/19 02:15:26;;;;;;;;;;;12.90;99.90;;;;;;7335670;19;110907;-66
2023/03/19 02:17:53;;;;;;;;;;;12.90;99.90;;;;;;7335109;19;110937;-66
2023/03/19 02:20:26;;;;;;;;;;;12.90;99.90;;;;;;7335274;19;108790;-66
2023/03/19 02:22:53;;;;;;;;;;;12.90;99.90;;;;;;7334296;19;108617;-67
2023/03/19 02:25:27;;;;;;;;;;;12.90;99.90;;;;;;7335675;19;110919;-66
2023/03/19 02:27:54;;;;;;;;;;;12.90;99.90;;;;;;7332791;19;109296;-66
2023/03/19 02:30:25;;;;;;;;;;;12.90;99.90;;;;;;7340993;19;109333;-66
2023/03/19 02:32:52;;;;;;;;;;;12.90;99.90;;;;;;7334420;19;108639;-66
2023/03/19 02:35:20;;;;;;;;;;;12.90;99.90;;;;;;7335306;19;108663;-67
2023/03/19 02:37:47;;;;;;;;;;;12.90;99.90;;;;;;7337303;19;108976;-67
2023/03/19 02:40:18;;;;;;;;;;;12.90;99.90;;;;;;7335347;19;108929;-66
2023/03/19 02:42:45;;;;;;;;;;;12.90;99.90;;;;;;7335205;19;109310;-66
2023/03/19 02:45:12;;;;;;;;;;;12.90;99.90;;;;;;7333919;19;109161;-66
2023/03/19 02:47:39;;;;;;;;;;;12.90;99.90;;;;;;7331082;19;109151;-66
2023/03/19 02:50:07;;;;;;;;;;;12.90;99.90;;;;;;7339905;19;108717;-66
2023/03/19 02:52:35;;;;;;;;;;;12.90;99.90;;;;;;7330824;19;109081;-66
2023/03/19 02:55:02;;;;;;;;;;;12.90;99.90;;;;;;7334528;19;108757;-66
2023/03/19 02:57:29;;;;;;;;;;;12.80;99.90;;;;;;7336535;19;109920;-66
2023/03/19 02:59:56;;;;;;;;;;;12.90;99.90;;;;;;7332699;19;109461;-66
2023/03/19 03:02:23;;;;;;;;;;;12.90;99.90;;;;;;7334288;19;109578;-67
2023/03/19 03:04:51;;;;;;;;;;;12.80;99.90;;;;;;7331261;19;109241;-66
2023/03/19 03:07:17;;;;;;;;;;;12.80;99.90;;;;;;7332833;19;109378;-66
2023/03/19 03:09:44;;;;;;;;;;;12.80;99.90;;;;;;7334917;19;108817;-67
2023/03/19 03:12:12;;;;;;;;;;;12.80;99.90;;;;;;7340517;19;109385;-65
2023/03/19 03:14:39;;;;;;;;;;;12.80;99.90;;;;;;7334657;19;110889;-66
2023/03/19 03:17:07;;;;;;;;;;;12.80;99.90;;;;;;7334845;19;110799;-66
2023/03/19 03:19:34;;;;;;;;;;;12.70;99.90;;;;;;7332724;19;108574;-67
2023/03/19 03:22:01;;;;;;;;;;;12.70;99.90;;;;;;7334735;19;109636;-67
2023/03/19 03:24:29;;;;;;;;;;;12.60;99.90;;;;;;7333428;19;109412;-66
2023/03/19 03:26:56;;;;;;;;;;;12.50;99.90;;;;;;7335019;19;109069;-67
2023/03/19 03:29:23;;;;;;;;;;;12.50;99.90;;;;;;7332557;19;109061;-66
2023/03/19 03:31:50;;;;;;;;;;;12.50;99.90;;;;;;7332229;19;110646;-66
2023/03/19 03:34:17;;;;;;;;;;;12.50;99.90;;;;;;7339679;19;110227;-66
2023/03/19 03:36:45;;;;;;;;;;;12.40;99.90;;;;;;7335121;19;110318;-66
2023/03/19 03:39:13;;;;;;;;;;;12.40;99.90;;;;;;7333384;19;109044;-66
2023/03/19 03:41:40;;;;;;;;;;;12.40;99.90;;;;;;7333617;19;108965;-66
2023/03/19 03:44:07;;;;;;;;;;;12.30;99.90;;;;;;7329816;19;109175;-66
2023/03/19 03:46:34;;;;;;;;;;;12.30;99.90;;;;;;7333201;19;109317;-66
2023/03/19 03:49:01;;;;;;;;;;;12.20;99.90;;;;;;7329572;19;109921;-66
2023/03/19 03:51:28;;;;;;;;;;;12.20;99.90;;;;;;7333431;19;110312;-66
2023/03/19 03:53:55;;;;;;;;;;;12.10;99.90;;;;;;7334168;19;109772;-66
2023/03/19 03:56:22;;;;;;;;;;;12.10;99.90;;;;;;7338313;19;108329;-67
2023/03/19 03:58:50;;;;;;;;;;;12.10;99.90;;;;;;7331279;19;109361;-67
2023/03/19 04:01:17;;;;;;;;;;;12.00;99.90;;;;;;7332932;19;109664;-66
2023/03/19 04:03:44;;;;;;;;;;;12.00;99.90;;;;;;7329774;19;109946;-66
2023/03/19 04:06:13;;;;;;;;;;;12.00;99.90;;;;;;7337444;19;108815;-66
2023/03/19 04:08:40;;;;;;;;;;;12.00;99.90;;;;;;7339235;19;109246;-67
2023/03/19 04:11:08;;;;;;;;;;;12.00;99.90;;;;;;7338952;19;109389;-66
2023/03/19 04:13:36;;;;;;;;;;;12.00;99.90;;;;;;7339443;19;109827;-66
2023/03/19 04:16:03;;;;;;;;;;;12.00;99.90;;;;;;7339266;19;110797;-66
2023/03/19 04:18:31;;;;;;;;;;;11.90;99.90;;;;;;7344690;19;109721;-66
2023/03/19 04:21:03;;;;;;;;;;;11.90;99.90;;;;;;7340811;19;108773;-67
2023/03/19 04:23:31;;;;;;;;;;;11.90;99.90;;;;;;7338027;19;113599;-66
2023/03/19 04:25:59;;;;;;;;;;;11.80;99.90;;;;;;7340006;19;109593;-66
2023/03/19 04:28:27;;;;;;;;;;;11.70;99.90;;;;;;7338423;19;108609;-66
2023/03/19 04:31:08;;;;;;;;;;;11.70;99.90;;;;;;7337679;19;110795;-66
2023/03/19 04:33:35;;;;;;;;;;;11.60;99.90;;;;;;7337055;19;108492;-66
2023/03/19 04:36:02;;;;;;;;;;;11.60;99.90;;;;;;7339354;19;109429;-66
2023/03/19 04:38:30;;;;;;;;;;;11.60;99.90;;;;;;7338690;19;110413;-66
2023/03/19 04:40:57;;;;;;;;;;;11.60;99.90;;;;;;7345877;19;108791;-66
2023/03/19 04:43:24;;;;;;;;;;;11.50;99.90;;;;;;7337433;19;109826;-66
2023/03/19 04:45:51;;;;;;;;;;;11.50;99.90;;;;;;7336524;19;109071;-66
2023/03/19 04:48:22;;;;;;;;;;;11.40;99.90;;;;;;7339289;19;120081;-66
2023/03/19 04:50:51;;;;;;;;;;;11.40;99.90;;;;;;7335987;19;109393;-66
2023/03/19 04:53:19;;;;;;;;;;;11.40;99.90;;;;;;7339098;19;109523;-66
2023/03/19 04:55:46;;;;;;;;;;;11.30;99.90;;;;;;7336861;19;108854;-66
2023/03/19 04:58:13;;;;;;;;;;;11.30;99.90;;;;;;7338642;19;110142;-66
2023/03/19 05:00:40;;;;;;;;;;;11.30;99.90;;;;;;7342998;19;109329;-69
2023/03/19 05:03:07;;;;;;;;;;;11.30;99.90;;;;;;7339360;19;110004;-66
2023/03/19 05:05:34;;;;;;;;;;;11.20;99.90;;;;;;7338043;19;108889;-66
2023/03/19 05:08:02;;;;;;;;;;;11.20;99.90;;;;;;7339226;19;111710;-66
2023/03/19 05:10:29;;;;;;;;;;;11.20;99.90;;;;;;7333257;19;109170;-67
2023/03/19 05:12:56;;;;;;;;;;;11.20;99.90;;;;;;7339068;19;108513;-66
2023/03/19 05:15:23;;;;;;;;;;;11.10;99.90;;;;;;7337546;19;111018;-67
2023/03/19 05:17:50;;;;;;;;;;;11.10;99.90;;;;;;7335918;19;109157;-66
2023/03/19 05:20:17;;;;;;;;;;;11.00;99.90;;;;;;7337081;19;109671;-66
2023/03/19 05:22:45;;;;;;;;;;;11.00;99.90;;;;;;7340267;19;109069;-66
2023/03/19 05:25:12;;;;;;;;;;;10.90;99.90;;;;;;7338403;19;108384;-66
2023/03/19 05:27:39;;;;;;;;;;;10.90;99.90;;;;;;7335267;19;108956;-66
2023/03/19 05:30:07;;;;;;;;;;;10.90;99.90;;;;;;7337186;19;109225;-66
2023/03/19 05:32:34;;;;;;;;;;;10.80;99.90;;;;;;7334491;19;109003;-66
2023/03/19 05:35:01;;;;;;;;;;;10.70;99.90;;;;;;7337367;19;109176;-66
2023/03/19 05:37:28;;;;;;;;;;;10.80;99.90;;;;;;7335519;19;109197;-66
2023/03/19 05:39:55;;;;;;;;;;;10.70;99.90;;;;;;7337887;19;109708;-66
2023/03/19 05:42:22;;;;;;;;;;;10.70;99.90;;;;;;7336805;19;109347;-66
2023/03/19 05:44:49;;;;;;;;;;;10.70;99.90;;;;;;7341433;19;109679;-66
2023/03/19 05:47:16;;;;;;;;;;;10.60;99.90;;;;;;7335021;19;110811;-66
2023/03/19 05:49:44;;;;;;;;;;;10.70;99.90;;;;;;7336112;19;110088;-66
2023/03/19 05:52:11;;;;;;;;;;;10.70;99.90;;;;;;7336614;19;109195;-66
2023/03/19 05:54:40;;;;;;;;;;;10.60;99.90;;;;;;7338122;19;109276;-66
2023/03/19 05:57:07;;;;;;;;;;;10.60;99.90;;;;;;7336006;19;109530;-68
2023/03/19 05:59:34;;;;;;;;;;;10.60;99.90;;;;;;7335382;19;111132;-67
2023/03/19 06:02:01;;;;;;;;;;;10.50;99.90;;;;;;7335530;19;109687;-66
2023/03/19 06:04:28;;;;;;;;;;;10.50;99.90;;;;;;7335241;19;111744;-66
2023/03/19 06:06:54;;;;;;;;;;;10.40;99.90;;;;;;7340408;19;108901;-66
2023/03/19 06:09:22;;;;;;;;;;;10.40;99.90;;;;;;7334969;19;110047;-67
2023/03/19 06:11:49;;;;;;;;;;;10.40;99.90;;;;;;7332905;19;109279;-67
2023/03/19 06:14:16;;;;;;;;;;;10.40;99.90;;;;;;7337599;19;109415;-67
2023/03/19 06:16:42;;;;;;;;;;;10.40;99.90;;;;;;7332866;19;109804;-66
2023/03/19 06:19:10;;;;;;;;;;;10.40;99.90;;;;;;7334773;19;109490;-66
2023/03/19 06:21:37;;;;;;;;;;;10.40;99.90;;;;;;7334429;19;109192;-66
2023/03/19 06:24:04;;;;;;;;;;;10.40;99.90;;;;;;7335750;19;110606;-66
2023/03/19 06:26:31;;;;;;;;;;;10.30;99.90;;;;;;7333451;19;108563;-67
2023/03/19 06:28:58;;;;;;;;;;;10.30;99.90;;;;;;7340720;19;109404;-72
2023/03/19 06:31:26;;;;;;;;;;;10.30;99.90;;;;;;7335084;19;109002;-69
2023/03/19 06:33:54;;;;;;;;;;;10.30;99.90;;;;;;7333972;19;111775;-75
2023/03/19 06:36:21;;;;;;;;;;;10.30;99.90;;;;;;7335157;19;110195;-73
2023/03/19 06:38:48;;;;;;;;;;;10.20;99.90;;;;;;7333069;19;109405;-76
2023/03/19 06:41:15;;;;;;;;;;;10.20;99.90;;;;;;7335429;19;108868;-73
2023/03/19 06:43:42;;;;;;;;;;;10.30;99.90;;;;;;7333593;19;109455;-75
2023/03/19 06:46:09;;;;;;;;;;;10.30;99.90;;;;;;7334824;19;108901;-75
2023/03/19 06:48:37;;;;;;;;;;;10.30;99.90;;;;;;7340019;19;108901;-72
2023/03/19 06:51:04;;;;;;;;;;;10.40;99.90;;;;;;7335595;19;111149;-76
2023/03/19 06:53:31;;;;;;;;;;;10.40;99.90;;;;;;7332809;19;108330;-74
2023/03/19 06:55:58;;;;;;;;;;;10.50;99.90;;;;;;7336771;19;109721;-75
2023/03/19 06:58:25;;;;;;;;;;;10.50;99.90;;;;;;7334426;19;109569;-73
2023/03/19 07:00:52;;;;;;;;;;;10.50;99.90;;;;;;7330537;19;109490;-76
2023/03/19 07:03:19;;;;;;;;;;;10.50;99.90;;;;;;7335305;19;110000;-90
2023/03/19 07:11:18;;;;;;;;;;;10.70;99.90;;;;;;7337528;19;109756;-67
2023/03/19 07:13:45;;;;;;;;;;;10.70;99.90;;;;;;7329035;19;108925;-67
2023/03/19 07:16:12;;;;;;;;;;;10.80;99.90;;;;;;7331455;19;109137;-67
2023/03/19 07:18:39;;;;;;;;;;;10.80;99.90;;;;;;7332818;19;108823;-67
2023/03/19 07:21:06;;;;;;;;;;;10.80;99.90;;;;;;7333551;19;108581;-68
2023/03/19 07:23:33;;;;;;;;;;;10.80;99.90;;;;;;7333168;19;112136;-67
2023/03/19 07:26:00;;;;;;;;;;;10.80;99.90;;;;;;7332564;19;109217;-67
2023/03/19 07:28:27;;;;;;;;;;;10.80;99.90;;;;;;7333160;19;111369;-67
2023/03/19 07:30:55;;;;;;;;;;;10.90;99.90;;;;;;7332184;19;109449;-67
2023/03/19 07:33:22;;;;;;;;;;;10.90;99.90;;;;;;7336331;19;111118;-67
2023/03/19 07:35:48;;;;;;;;;;;10.90;99.90;;;;;;7332139;19;111507;-67
2023/03/19 07:38:15;;;;;;;;;;;10.80;99.90;;;;;;7333501;19;109469;-67
2023/03/19 07:40:43;;;;;;;;;;;10.90;99.90;;;;;;7335812;19;109503;-67
2023/03/19 07:43:24;;;;;;;;;;;10.90;99.90;;;;;;7341717;19;109170;-67
2023/03/19 07:45:51;;;;;;;;;;;10.90;99.90;;;;;;7337319;19;110067;-66
2023/03/19 07:48:18;;;;;;;;;;;11.00;99.90;;;;;;7341254;19;109591;-66
2023/03/19 07:50:45;;;;;;;;;;;11.00;99.90;;;;;;7339097;19;109948;-67
2023/03/19 07:53:12;;;;;;;;;;;11.10;99.90;;;;;;7337615;19;109315;-67
2023/03/19 07:55:39;;;;;;;;;;;11.30;99.90;;;;;;7343588;19;108760;-67
2023/03/19 07:58:06;;;;;;;;;;;11.40;99.90;;;;;;7337122;19;110958;-67
2023/03/19 08:00:33;;;;;;;;;;;11.50;99.90;;;;;;7338858;19;108391;-67
2023/03/19 08:03:01;;;;;;;;;;;11.60;99.90;;;;;;7337130;19;110193;-67
2023/03/19 08:05:28;;;;;;;;;;;11.80;99.90;;;;;;7339385;19;108720;-67
2023/03/19 08:07:55;;;;;;;;;;;11.90;99.90;;;;;;7341019;19;108245;-67
2023/03/19 08:10:22;;;;;;;;;;;12.00;99.90;;;;;;7337343;19;109744;-69
2023/03/19 08:12:49;;;;;;;;;;;12.20;99.90;;;;;;7341445;19;108851;-67
2023/03/19 08:15:17;;;;;;;;;;;12.30;99.90;;;;;;7340086;19;108875;-67
2023/03/19 08:17:44;;;;;;;;;;;12.40;99.90;;;;;;7345625;19;110398;-67
2023/03/19 08:20:12;;;;;;;;;;;12.50;99.90;;;;;;7338468;19;108778;-67
2023/03/19 08:22:40;;;;;;;;;;;12.60;99.90;;;;;;7342387;19;109744;-67
2023/03/19 08:25:08;;;;;;;;;;;12.70;99.90;;;;;;7337951;19;109969;-67
2023/03/19 08:27:35;;;;;;;;;;;12.80;99.90;;;;;;7338876;19;109277;-67
2023/03/19 08:30:06;;;;;;;;;;;12.80;99.90;;;;;;7336512;19;109744;-69
2023/03/19 08:32:33;;;;;;;;;;;12.90;99.90;;;;;;7339247;19;111937;-67
2023/03/19 08:35:00;;;;;;;;;;;13.00;99.90;;;;;;7340016;19;111318;-67
2023/03/19 08:37:27;;;;;;;;;;;13.10;99.90;;;;;;7335779;19;109218;-67
2023/03/19 08:39:55;;;;;;;;;;;13.20;99.90;;;;;;7343223;19;109010;-67
2023/03/19 08:42:22;;;;;;;;;;;13.30;99.90;;;;;;7335759;19;109451;-67
2023/03/19 08:44:49;;;;;;;;;;;13.30;99.90;;;;;;7338444;19;108501;-67
2023/03/19 08:47:16;;;;;;;;;;;13.40;99.90;;;;;;7336502;19;109760;-67
2023/03/19 08:49:43;;;;;;;;;;;13.50;99.90;;;;;;7337591;19;110533;-68
2023/03/19 08:52:10;;;;;;;;;;;13.50;99.90;;;;;;7335798;19;109496;-67
2023/03/19 08:54:37;;;;;;;;;;;13.60;99.90;;;;;;7335373;19;109119;-75
2023/03/19 08:57:04;;;;;;;;;;;13.60;99.90;;;;;;7338947;19;109342;-74
2023/03/19 08:59:31;;;;;;;;;;;13.70;99.90;;;;;;7340388;19;108969;-74
2023/03/19 09:02:00;;;;;;;;;;;13.70;99.90;;;;;;7339950;19;110873;-75
2023/03/19 09:04:27;;;;;;;;;;;13.80;99.90;;;;;;7336994;19;109206;-75
2023/03/19 09:06:54;;;;;;;;;;;13.80;99.90;;;;;;7336710;19;108714;-75
2023/03/19 09:09:22;;;;;;;;;;;13.80;99.90;;;;;;7337144;19;109201;-74
2023/03/19 09:11:49;;;;;;;;;;;13.80;99.90;;;;;;7335037;19;109838;-76
2023/03/19 09:14:18;;;;;;;;;;;13.90;99.90;;;;;;7338759;19;109068;-74
2023/03/19 09:16:47;;;;;;;;;;;14.00;99.90;;;;;;7337793;19;111718;-76
2023/03/19 09:19:14;;;;;;;;;;;14.10;99.90;;;;;;7338627;19;108773;-75
2023/03/19 09:21:41;;;;;;;;;;;14.30;99.90;;;;;;7340764;19;108737;-74
2023/03/19 09:24:08;;;;;;;;;;;14.30;99.90;;;;;;7336563;19;109369;-74
2023/03/19 09:26:35;;;;;;;;;;;14.40;99.90;;;;;;7336921;19;109139;-71
2023/03/19 09:29:02;;;;;;;;;;;14.60;99.90;;;;;;7335747;19;109562;-75
2023/03/19 09:31:29;;;;;;;;;;;14.70;99.90;;;;;;7338378;19;110584;-74
2023/03/19 09:33:56;;;;;;;;;;;14.80;99.90;;;;;;7335003;19;109732;-74
2023/03/19 09:36:24;;;;;;;;;;;14.90;99.90;;;;;;7338754;19;112653;-74
2023/03/19 09:38:51;;;;;;;;;;;14.90;99.90;;;;;;7337774;19;108652;-75
2023/03/19 09:41:30;;;;;;;;;;;15.10;99.90;;;;;;7339658;19;109622;-74
2023/03/19 09:44:23;;;;;;;;;;;15.30;99.90;;;;;;7343539;19;110660;-75
2023/03/19 09:46:57;;;;;;;;;;;15.50;99.90;;;;;;7335345;19;110163;-75
2023/03/19 09:49:27;;;;;;;;;;;15.70;99.90;;;;;;7337933;19;110203;-75
2023/03/19 09:52:01;;;;;;;;;;;15.80;99.90;;;;;;7333674;19;108593;-75
2023/03/19 09:54:30;;;;;;;;;;;15.80;99.90;;;;;;7338978;19;111892;-76
2023/03/19 09:56:58;;;;;;;;;;;15.90;99.90;;;;;;7338525;19;110223;-75
2023/03/19 09:59:27;;;;;;;;;;;15.90;99.90;;;;;;7337370;19;108825;-76
2023/03/19 10:02:11;;;;;;;;;;;15.80;99.90;;;;;;7337377;19;109432;-75
2023/03/19 10:04:41;;;;;;;;;;;15.80;99.90;;;;;;7335397;19;110879;-75
2023/03/19 10:07:20;;;;;;;;;;;15.80;99.90;;;;;;7342333;19;108938;-75
2023/03/19 10:10:05;;;;;;;;;;;15.80;99.90;;;;;;7333590;19;110295;-76
2023/03/19 10:12:44;;;;;;;;;;;15.80;99.90;;;;;;7335145;19;108490;-75
2023/03/19 10:15:19;;;;;;;;;;;15.90;99.90;;;;;;7334331;19;108746;-76
2023/03/19 10:17:55;;;;;;;;;;;16.10;99.90;;;;;;7333554;19;109173;-76
2023/03/19 10:20:41;;;;;;;;;;;16.30;99.90;;;;;;7336157;19;108649;-76
2023/03/19 10:23:20;;;;;;;;;;;16.40;99.90;;;;;;7336076;19;108581;-76
2023/03/19 10:25:48;;;;;;;;;;;16.50;99.90;;;;;;7335443;19;108928;-76
2023/03/19 10:28:17;;;;;;;;;;;16.50;99.90;;;;;;7335925;19;108520;-76
2023/03/19 10:30:48;;;;;;;;;;;16.50;99.90;;;;;;7336859;19;109653;-76
2023/03/19 10:33:22;;;;;;;;;;;16.40;99.90;;;;;;7333804;19;108660;-75
2023/03/19 10:35:56;;;;;;;;;;;16.30;99.90;;;;;;7331025;19;108707;-75
2023/03/19 10:38:24;;;;;;;;;;;16.30;99.90;;;;;;7336951;19;110283;-75
2023/03/19 10:41:10;;;;;;;;;;;16.40;99.90;;;;;;7335469;19;108512;-74
2023/03/19 10:43:38;;;;;;;;;;;16.40;99.90;;;;;;7334640;19;109469;-76
2023/03/19 10:46:11;;;;;;;;;;;16.30;99.90;;;;;;7336176;19;108949;-74
2023/03/19 10:48:42;;;;;;;;;;;16.20;99.90;;;;;;7334903;19;110125;-75
2023/03/19 10:51:11;;;;;;;;;;;16.10;99.90;;;;;;7336818;19;111000;-74
2023/03/19 10:53:40;;;;;;;;;;;16.00;99.90;;;;;;7337926;19;110216;-74
2023/03/19 10:56:28;;;;;;;;;;;16.10;99.90;;;;;;7336037;19;109597;-74
2023/03/19 10:59:00;;;;;;;;;;;16.10;99.90;;;;;;7334230;19;110175;-74
2023/03/19 11:01:34;;;;;;;;;;;16.00;99.90;;;;;;7333190;19;109060;-74
2023/03/19 11:04:10;;;;;;;;;;;15.90;99.90;;;;;;7334550;19;110965;-74
2023/03/19 11:06:37;;;;;;;;;;;15.90;99.90;;;;;;7334174;19;111150;-74
2023/03/19 11:09:07;;;;;;;;;;;15.80;99.90;;;;;;7335127;19;109526;-74
2023/03/19 11:11:36;;;;;;;;;;;15.90;99.90;;;;;;7332414;19;109037;-74
2023/03/19 11:14:29;;;;;;;;;;;16.00;99.90;;;;;;7341562;19;111936;-74
2023/03/19 11:17:05;;;;;;;;;;;16.10;99.90;;;;;;7342212;19;110643;-73
2023/03/19 11:19:40;;;;;;;;;;;16.10;99.90;;;;;;7341386;19;109513;-74
2023/03/19 11:22:07;;;;;;;;;;;16.10;99.90;;;;;;7340828;19;111003;-74
2023/03/19 11:24:39;;;;;;;;;;;16.20;99.90;;;;;;7340520;19;109840;-74
2023/03/19 11:27:06;;;;;;;;;;;16.20;99.90;;;;;;7342767;19;110193;-74
2023/03/19 11:29:37;;;;;;;;;;;16.30;99.90;;;;;;7340946;19;112184;-75
2023/03/19 11:32:14;;;;;;;;;;;16.30;99.90;;;;;;7341985;19;109649;-75
2023/03/19 11:35:07;;;;;;;;;;;16.40;99.90;;;;;;7342689;19;109722;-74
2023/03/19 11:37:37;;;;;;;;;;;16.60;99.90;;;;;;7343700;19;108343;-74
2023/03/19 11:40:07;;;;;;;;;;;16.60;99.90;;;;;;7337128;19;109907;-75
2023/03/19 11:42:41;;;;;;;;;;;16.50;99.90;;;;;;7339012;19;108788;-74
2023/03/19 11:45:08;;;;;;;;;;;16.70;99.90;;;;;;7340733;19;112477;-74
2023/03/19 11:47:58;;;;;;;;;;;16.80;99.90;;;;;;7338807;19;109181;-74
2023/03/19 11:50:34;;;;;;;;;;;16.70;99.90;;;;;;7337330;19;108602;-74
2023/03/19 11:53:11;;;;;;;;;;;16.70;99.90;;;;;;7338283;19;110425;-74
2023/03/19 11:55:41;;;;;;;;;;;16.80;99.90;;;;;;7337367;19;109139;-74
2023/03/19 11:58:27;;;;;;;;;;;16.70;99.90;;;;;;7340853;19;110147;-74
2023/03/19 12:00:59;;;;;;;;;;;16.70;99.90;;;;;;7345334;19;112912;-74
2023/03/19 12:03:45;;;;;;;;;;;16.80;99.90;;;;;;7338970;19;108828;-74
2023/03/19 12:06:31;;;;;;;;;;;16.90;99.90;;;;;;7340142;19;109411;-74
2023/03/19 12:09:16;;;;;;;;;;;17.00;99.90;;;;;;7340372;19;109126;-75
2023/03/19 12:11:59;;;;;;;;;;;17.20;99.90;;;;;;7338574;19;108980;-75
2023/03/19 12:14:26;;;;;;;;;;;17.20;99.90;;;;;;7341002;19;109351;-75
2023/03/19 12:16:56;;;;;;;;;;;17.30;99.90;;;;;;7338471;19;110574;-74
2023/03/19 12:19:32;;;;;;;;;;;17.20;99.90;;;;;;7338937;19;108545;-74
2023/03/19 12:22:13;;;;;;;;;;;17.10;99.90;;;;;;7342492;19;109233;-74
2023/03/19 12:24:46;;;;;;;;;;;17.10;99.90;;;;;;7345372;19;110093;-74
2023/03/19 12:27:35;;;;;;;;;;;17.00;99.90;;;;;;7339691;19;109009;-74
2023/03/19 12:30:11;;;;;;;;;;;17.00;99.90;;;;;;7338716;19;112895;-74
2023/03/19 12:32:39;;;;;;;;;;;17.00;99.90;;;;;;7338247;19;108645;-75
2023/03/19 12:35:15;;;;;;;;;;;17.00;99.90;;;;;;7341121;19;109137;-75
2023/03/19 12:37:52;;;;;;;;;;;17.00;99.90;;;;;;7337718;19;110929;-75
2023/03/19 12:40:19;;;;;;;;;;;17.10;99.90;;;;;;7339922;19;109068;-75
2023/03/19 12:42:46;;;;;;;;;;;17.10;99.90;;;;;;7339712;19;109504;-74
2023/03/19 12:45:22;;;;;;;;;;;17.20;99.90;;;;;;7337556;19;110154;-75
2023/03/19 12:47:49;;;;;;;;;;;17.20;99.90;;;;;;7344904;19;108861;-75
2023/03/19 12:50:16;;;;;;;;;;;17.20;99.90;;;;;;7337269;19;111724;-75
2023/03/19 12:52:48;;;;;;;;;;;17.00;99.90;;;;;;7338013;19;109119;-75
2023/03/19 12:55:41;;;;;;;;;;;16.80;99.90;;;;;;7340389;19;110179;-75
2023/03/19 12:58:08;;;;;;;;;;;16.80;99.90;;;;;;7338118;19;110821;-74
2023/03/19 13:00:39;;;;;;;;;;;16.80;99.90;;;;;;7339518;19;108801;-75
2023/03/19 13:03:21;;;;;;;;;;;16.80;99.90;;;;;;7338899;19;110674;-74
2023/03/19 13:05:48;;;;;;;;;;;16.80;99.90;;;;;;7336301;19;111996;-75
2023/03/19 13:08:33;;;;;;;;;;;16.80;99.90;;;;;;7335230;19;109263;-75
2023/03/19 13:11:03;;;;;;;;;;;16.80;99.90;;;;;;7342520;19;110397;-74
2023/03/19 13:13:30;;;;;;;;;;;16.80;99.90;;;;;;7335277;19;109916;-75
2023/03/19 13:18:53;;;;;;;;;;;16.60;99.90;;;;;;7343453;19;110171;-86
2023/03/19 13:21:29;;;;;;;;;;;16.60;99.90;;;;;;7338401;19;108682;-88
2023/03/19 13:24:20;;;;;;;;;;;16.50;99.90;;;;;;7342113;19;110894;-86
2023/03/19 13:26:47;;;;;;;;;;;16.50;99.90;;;;;;7336584;19;110280;-86
2023/03/19 13:29:15;;;;;;;;;;;16.40;99.90;;;;;;7341720;19;109488;-86
2023/03/19 13:31:42;;;;;;;;;;;16.50;99.90;;;;;;7341628;19;108869;-85
2023/03/19 13:34:19;;;;;;;;;;;16.50;99.90;;;;;;7337105;19;109493;-87
2023/03/19 13:37:06;;;;;;;;;;;16.40;99.90;;;;;;7336269;19;109850;-85
2023/03/19 13:39:34;;;;;;;;;;;16.70;99.90;;;;;;7341110;19;110089;-86
2023/03/19 13:44:48;;;;;;;;;;;17.00;99.90;;;;;;7330246;19;108983;-85
2023/03/19 13:47:28;;;;;;;;;;;17.10;99.90;;;;;;7324895;19;109168;-60
2023/03/19 13:50:09;;;;;;;;;;;17.40;99.90;;;;;;7331254;19;109600;-60
2023/03/19 13:52:43;;;;;;;;;;;17.60;99.90;;;;;;7333367;19;109755;-60
2023/03/19 13:55:22;;;;;;;;;;;17.80;99.90;;;;;;7340883;19;110029;-60
2023/03/19 13:58:00;;;;;;;;;;;18.00;99.90;;;;;;7336490;19;109149;-60
2023/03/19 14:00:47;;;;;;;;;;;18.20;99.90;;;;;;7336659;19;110108;-61
2023/03/19 14:03:21;;;;;;;;;;;18.40;99.90;;;;;;7334714;19;110331;-63
2023/03/19 14:05:49;;;;;;;;;;;18.60;99.90;;;;;;7334330;19;108592;-67
2023/03/19 14:08:18;;;;;;;;;;;18.70;99.90;;;;;;7333595;19;109104;-65
2023/03/19 14:10:50;;;;;;;;;;;18.70;99.90;;;;;;7337005;19;108425;-65
2023/03/19 14:13:20;;;;;;;;;;;18.40;99.90;;;;;;7338533;19;108808;-67
2023/03/19 14:15:48;;;;;;;;;;;18.50;99.90;;;;;;7336653;19;108937;-69
2023/03/19 14:18:18;;;;;;;;;;;18.50;99.90;;;;;;7341073;19;108736;-62
2023/03/19 14:20:55;;;;;;;;;;;18.40;99.90;;;;;;7334450;19;109643;-62
2023/03/19 14:26:13;;;;;;;;;;;18.40;99.90;;;;;;7340870;19;108543;-60
2023/03/19 14:28:43;;;;;;;;;;;18.30;99.90;;;;;;7335731;19;109770;-60
2023/03/19 14:31:33;;;;;;;;;;;18.20;99.90;;;;;;7337995;19;109098;-60
2023/03/19 14:34:00;;;;;;;;;;;18.10;99.90;;;;;;7331859;19;109367;-63